U219 / G-EZOI 7700 Squawk Report (18th of June, 2019)

Aircraft A320 Reg No. G-EZOI Age 4 years old
Model A320 Jet engines 2 First flight 27-03-15
Registered 15-04-15 Rollout 03-15 Delivered 15-04-15
Construction No. 6562 Line No. N/A Series 214(SL)
ADSHEX 406D8E Airline name easyJet Owner N/A
Airfield based Luton~Beds~G First tracked 2017-07-13 09:56:00

Flight history for G-EZOI

Time Lat Lon Altitude Heading Speed Vertical Rate
2019-06-18 19:42:18 GMT 55.948921 -3.369906 0 59 24 0
2019-06-18 19:41:39 GMT 55.946709 -3.376465 0 59 18 0
2019-06-18 19:40:12 GMT 55.950909 -3.369661 0 239 125 0
2019-06-18 19:39:57 GMT 55.955605 -3.355808 250 239 131 -192
2019-06-18 19:39:54 GMT 55.956390 -3.353410 275 239 131 -704
2019-06-18 19:39:46 GMT 55.959274 -3.344921 375 240 130 -640
2019-06-18 19:39:40 GMT 55.960724 -3.340702 450 239 128 -640
2019-06-18 19:39:35 GMT 55.962341 -3.336015 500 240 129 -704
2019-06-18 19:39:31 GMT 55.963715 -3.331770 550 239 129 -768
2019-06-18 19:39:26 GMT 55.965565 -3.326368 625 239 129 -640
2019-06-18 19:39:21 GMT 55.966919 -3.322282 675 239 130 -704
2019-06-18 19:39:17 GMT 55.968246 -3.318454 700 239 129 -640
2019-06-18 19:39:13 GMT 55.969254 -3.315541 750 239 130 -640
2019-06-18 19:39:09 GMT 55.970535 -3.311712 800 239 130 -576
2019-06-18 19:39:03 GMT 55.972549 -3.305769 850 240 130 -768
2019-06-18 19:38:58 GMT 55.974087 -3.301220 925 239 130 -576
2019-06-18 19:38:54 GMT 55.975296 -3.297701 950 239 130 -704
2019-06-18 19:38:50 GMT 55.976318 -3.294783 1,000 239 131 -768
2019-06-18 19:38:47 GMT 55.977859 -3.290322 1,050 239 131 -704
2019-06-18 19:38:44 GMT 55.978413 -3.288689 1,075 239 132 -768
2019-06-18 19:38:40 GMT 55.979691 -3.284912 1,125 240 132 -768
2019-06-18 19:38:35 GMT 55.981522 -3.279419 1,200 240 134 -704
2019-06-18 19:38:30 GMT 55.983124 -3.274592 1,250 240 138 -640
2019-06-18 19:38:27 GMT 55.983719 -3.272844 1,300 240 142 -704
2019-06-18 19:38:24 GMT 55.984932 -3.269205 1,300 240 142 -704
2019-06-18 19:38:19 GMT 55.986282 -3.265103 1,350 239 149 -576
2019-06-18 19:38:15 GMT 55.989632 -3.255301 1,500 239 164 -960
2019-06-18 19:38:11 GMT 55.989632 -3.255301 1,425 239 161 -704
2019-06-18 19:38:07 GMT 55.991402 -3.249979 1,500 239 164 -960
2019-06-18 19:38:04 GMT 55.992100 -3.247919 1,550 240 169 -1152
2019-06-18 19:37:59 GMT 55.994156 -3.241799 1,625 240 169 -1152
2019-06-18 19:37:56 GMT 55.995392 -3.238220 1,700 239 171 -1280
2019-06-18 19:37:53 GMT 55.996353 -3.235307 1,875 240 173 -1344
2019-06-18 19:37:50 GMT 55.998093 -3.230147 1,875 240 173 -1344
2019-06-18 19:37:46 GMT 55.999737 -3.225260 1,875 240 173 -1280
2019-06-18 19:37:42 GMT 56.001457 -3.220110 2,025 239 174 -960
2019-06-18 19:37:39 GMT 56.002201 -3.217878 2,025 240 174 -768
2019-06-18 19:37:35 GMT 56.003784 -3.213158 2,050 239 176 -448
2019-06-18 19:37:32 GMT 56.005043 -3.209467 2,100 239 180 -256
2019-06-18 19:37:29 GMT 56.006905 -3.204060 2,100 239 180 -256
2019-06-18 19:37:26 GMT 56.008533 -3.199425 2,125 238 185 -448
2019-06-18 19:37:22 GMT 56.009995 -3.195274 2,150 237 188 -640
2019-06-18 19:37:18 GMT 56.011745 -3.190584 2,175 236 191 -896
2019-06-18 19:37:15 GMT 56.012970 -3.187533 2,250 234 191 -1664
2019-06-18 19:37:12 GMT 56.014866 -3.182945 2,325 233 191 -1856
2019-06-18 19:37:08 GMT 56.016960 -3.178310 2,425 231 191 -1728
2019-06-18 19:37:04 GMT 56.019566 -3.172731 2,525 230 192 -1600
2019-06-18 19:37:01 GMT 56.021118 -3.169556 3,075 280 221 -1408
2019-06-18 19:36:58 GMT 56.023087 -3.165394 2,650 230 194 -1536
2019-06-18 19:36:54 GMT 56.025787 -3.158819 2,775 236 198 -1280
2019-06-18 19:36:51 GMT 56.026428 -3.156738 2,875 245 202 -1280
2019-06-18 19:36:48 GMT 56.027527 -3.152561 2,875 245 202 -1280
2019-06-18 19:36:45 GMT 56.028549 -3.146381 3,000 260 209 -1216
2019-06-18 19:36:42 GMT 56.028900 -3.142589 3,075 280 221 -1408
2019-06-18 19:36:39 GMT 56.029018 -3.136940 3,100 272 216 -1280
2019-06-18 19:36:35 GMT 56.028412 -3.127241 3,225 280 222 -1408
2019-06-18 19:36:31 GMT 56.027756 -3.120700 3,325 281 226 -1216
2019-06-18 19:36:28 GMT 56.027340 -3.117027 3,350 283 229 -1088
2019-06-18 19:36:23 GMT 56.026016 -3.106634 3,425 284 231 -960
2019-06-18 19:36:20 GMT 56.025284 -3.101807 3,525 289 236 -1344
2019-06-18 19:36:17 GMT 56.024361 -3.097029 3,550 293 238 -1408
2019-06-18 19:36:13 GMT 56.022079 -3.088875 3,625 302 242 -1856
2019-06-18 19:36:10 GMT 56.019974 -3.083663 3,800 313 247 -1984
2019-06-18 19:36:07 GMT 56.017410 -3.078502 3,850 317 248 -1792
2019-06-18 19:36:02 GMT 56.013702 -3.072910 4,000 327 255 -1280
2019-06-18 19:35:59 GMT 56.010906 -3.069649 4,050 332 260 -1152
2019-06-18 19:35:56 GMT 56.007477 -3.066434 4,100 335 263 -1088
2019-06-18 19:35:52 GMT 56.003220 -3.063105 4,175 338 267 -1024
2019-06-18 19:35:49 GMT 55.997910 -3.059359 4,250 339 269 -1024
2019-06-18 19:35:46 GMT 55.996033 -3.058028 4,275 339 270 -832
2019-06-18 19:35:42 GMT 55.989960 -3.053770 4,350 339 272 -576
2019-06-18 19:35:39 GMT 55.988331 -3.052654 4,375 339 273 -448
2019-06-18 19:35:36 GMT 55.984543 -3.050121 4,400 340 273 -512
2019-06-18 19:35:32 GMT 55.979095 -3.046459 4,425 341 274 -384
2019-06-18 19:35:29 GMT 55.975994 -3.044586 4,475 343 274 -512
2019-06-18 19:35:26 GMT 55.972137 -3.042297 4,475 343 274 -512
2019-06-18 19:35:23 GMT 55.966965 -3.039884 4,525 350 275 -448
2019-06-18 19:35:20 GMT 55.959915 -3.037969 4,525 352 275 -512
2019-06-18 19:35:16 GMT 55.959915 -3.037969 4,550 355 276 -576
2019-06-18 19:35:10 GMT 55.951508 -3.037205 4,600 358 277 -512
2019-06-18 19:35:05 GMT 55.946136 -3.036887 4,650 359 277 -576
2019-06-18 19:35:00 GMT 55.938660 -3.036432 4,725 359 278 -384
2019-06-18 19:34:57 GMT 55.932495 -3.036055 4,750 358 280 -320
2019-06-18 19:34:50 GMT 55.926315 -3.035722 4,800 359 279 -320
2019-06-18 19:34:45 GMT 55.920086 -3.035316 4,800 358 282 -320
2019-06-18 19:34:41 GMT 55.914917 -3.034973 4,800 359 284 -512
2019-06-18 19:34:38 GMT 55.910446 -3.034716 4,825 359 286 -256
2019-06-18 19:34:35 GMT 55.901695 -3.034201 4,825 359 289 -256
2019-06-18 19:34:32 GMT 55.901695 -3.034201 4,850 359 291 -512
2019-06-18 19:34:29 GMT 55.898716 -3.034029 4,875 358 295 -640
2019-06-18 19:34:26 GMT 55.895187 -3.033808 4,900 358 295 -640
2019-06-18 19:34:23 GMT 55.891129 -3.033600 4,900 359 299 -1088
2019-06-18 19:34:19 GMT 55.885071 -3.033225 4,975 358 298 -1024
2019-06-18 19:34:14 GMT 55.878159 -3.032809 5,075 359 300 -1408
2019-06-18 19:34:09 GMT 55.870365 -3.032312 5,200 359 302 -1408
2019-06-18 19:34:04 GMT 55.865067 -3.032060 5,300 359 304 -1408
2019-06-18 19:34:00 GMT 55.858868 -3.031797 5,425 359 309 -1472
2019-06-18 19:33:54 GMT 55.850674 -3.031454 5,550 359 308 -1344
2019-06-18 19:33:51 GMT 55.844669 -3.031197 5,600 359 310 -1344
2019-06-18 19:33:47 GMT 55.838379 -3.030978 5,700 359 316 -1344
2019-06-18 19:33:43 GMT 55.834030 -3.030812 5,775 359 313 -1408
2019-06-18 19:33:40 GMT 55.830872 -3.030728 5,850 359 315 -1344
2019-06-18 19:33:37 GMT 55.825928 -3.030479 6,025 359 316 -1344
2019-06-18 19:33:34 GMT 55.820343 -3.030229 6,000 359 319 -1152
2019-06-18 19:33:28 GMT 55.812038 -3.029823 6,100 359 323 -1344
2019-06-18 19:33:23 GMT 55.804916 -3.029397 6,275 359 326 -1408
2019-06-18 19:33:20 GMT 55.799469 -3.029064 6,300 359 331 -1344
2019-06-18 19:33:17 GMT 55.787922 -3.028364 6,400 359 330 -1088
2019-06-18 19:33:13 GMT 55.787922 -3.028364 6,450 359 332 -1344
2019-06-18 19:33:09 GMT 55.783314 -3.028107 6,500 359 334 -1280
2019-06-18 19:33:06 GMT 55.779922 -3.027899 6,550 359 335 -1344
2019-06-18 19:33:02 GMT 55.772781 -3.027566 6,650 359 339 -1344
2019-06-18 19:32:57 GMT 55.759552 -3.026900 7,550 359 378 -1216
2019-06-18 19:32:54 GMT 55.759552 -3.026900 6,825 359 345 -1280
2019-06-18 19:32:51 GMT 55.756359 -3.026733 6,875 359 346 -1216
2019-06-18 19:32:48 GMT 55.740810 -3.026133 7,025 359 353 -1280
2019-06-18 19:32:42 GMT 55.740810 -3.026133 7,100 359 354 -1216
2019-06-18 19:32:39 GMT 55.735226 -3.025875 7,150 359 358 -1280
2019-06-18 19:32:36 GMT 55.731918 -3.025789 7,200 0 361 -1152
2019-06-18 19:32:33 GMT 55.724239 -3.025618 7,275 0 364 -1152
2019-06-18 19:32:30 GMT 55.717487 -3.025360 7,350 0 367 -1152
2019-06-18 19:32:27 GMT 55.717487 -3.025360 7,425 0 372 -1216
2019-06-18 19:32:24 GMT 55.712036 -3.025235 7,425 0 371 -1216
2019-06-18 19:32:21 GMT 55.699612 -3.024845 7,550 359 377 -1216
2019-06-18 19:32:17 GMT 55.699612 -3.024845 8,000 0 397 -1536
2019-06-18 19:32:14 GMT 55.694401 -3.024673 7,650 359 379 -1280
2019-06-18 19:32:11 GMT 55.687740 -3.024416 7,700 359 380 -1344
2019-06-18 19:32:08 GMT 55.681732 -3.024237 7,800 359 384 -1344
2019-06-18 19:32:05 GMT 55.677128 -3.024073 7,875 359 384 -1280
2019-06-18 19:32:00 GMT 55.661819 -3.023571 8,150 359 390 -1216
2019-06-18 19:31:57 GMT 55.661819 -3.023571 8,050 359 388 -1408
2019-06-18 19:31:54 GMT 55.652115 -3.023238 8,150 359 389 -1280
2019-06-18 19:31:51 GMT 55.652115 -3.023238 8,225 359 390 -1216
2019-06-18 19:31:47 GMT 55.644562 -3.022905 8,250 359 390 -1152
2019-06-18 19:31:44 GMT 55.638794 -3.022655 8,275 359 390 -1152
2019-06-18 19:31:40 GMT 55.633041 -3.022442 8,375 359 390 -960
2019-06-18 19:31:37 GMT 55.627625 -3.022239 8,400 359 390 -1024
2019-06-18 19:31:34 GMT 55.622196 -3.022099 8,500 359 391 -1088
2019-06-18 19:31:30 GMT 55.616051 -3.021841 8,575 359 392 -1152
2019-06-18 19:31:26 GMT 55.608463 -3.021584 8,625 359 392 -1024
2019-06-18 19:31:23 GMT 55.601574 -3.021326 8,675 359 392 -1024
2019-06-18 19:31:19 GMT 55.593243 -3.020983 8,775 359 392 -1024
2019-06-18 19:31:16 GMT 55.588165 -3.020824 8,825 359 392 -1088
2019-06-18 19:31:13 GMT 55.584915 -3.020658 8,850 359 392 -1152
2019-06-18 19:31:09 GMT 55.577316 -3.020408 8,925 359 392 -1152
2019-06-18 19:31:06 GMT 55.569733 -3.020124 9,025 359 393 -1472
2019-06-18 19:31:03 GMT 55.565727 -3.019953 9,050 359 393 -1536
2019-06-18 19:31:00 GMT 55.559586 -3.019781 9,150 359 393 -1536
2019-06-18 19:30:57 GMT 55.554462 -3.019609 9,200 359 394 -1536
2019-06-18 19:30:54 GMT 55.544315 -3.019266 9,325 359 394 -1472
2019-06-18 19:30:51 GMT 55.544315 -3.019266 9,400 359 394 -1472
2019-06-18 19:30:47 GMT 55.537376 -3.019009 9,450 359 394 -1472
2019-06-18 19:30:44 GMT 55.531540 -3.018827 9,575 0 395 -1536
2019-06-18 19:30:40 GMT 55.522430 -3.018577 9,725 0 397 -1536
2019-06-18 19:30:36 GMT 55.516941 -3.018408 9,725 0 397 -1536
2019-06-18 19:30:33 GMT 55.509212 -3.018236 9,825 0 397 -1536
2019-06-18 19:30:29 GMT 55.503342 -3.018078 9,900 0 398 -1472
2019-06-18 19:30:26 GMT 55.498215 -3.017994 10,000 359 399 -1600
2019-06-18 19:30:22 GMT 55.491943 -3.017721 10,075 359 400 -1664
2019-06-18 19:30:19 GMT 55.486038 -3.017495 10,175 359 401 -1664
2019-06-18 19:30:16 GMT 55.478630 -3.017120 10,275 358 402 -1664
2019-06-18 19:30:12 GMT 55.464104 -3.016176 10,425 358 404 -1664
2019-06-18 19:30:08 GMT 55.464104 -3.016176 10,500 359 410 -1920
2019-06-18 19:30:04 GMT 55.457401 -3.015747 10,600 358 406 -1728
2019-06-18 19:30:01 GMT 55.452896 -3.015497 10,625 358 407 -1856
2019-06-18 19:29:58 GMT 55.445755 -3.014998 10,700 358 408 -1856
2019-06-18 19:29:54 GMT 55.439339 -3.014582 10,875 359 409 -1856
2019-06-18 19:29:51 GMT 55.432125 -3.014166 10,975 359 410 -1920
2019-06-18 19:29:48 GMT 55.426849 -3.013889 11,100 359 410 -1984
2019-06-18 19:29:45 GMT 55.420395 -3.013500 11,225 359 411 -2048
2019-06-18 19:29:42 GMT 55.413921 -3.013084 11,275 359 411 -2176
2019-06-18 19:29:37 GMT 55.406708 -3.012677 11,400 359 411 -2240
2019-06-18 19:29:33 GMT 55.390045 -3.011708 11,700 359 411 -2304
2019-06-18 19:29:29 GMT 55.390045 -3.011708 11,775 359 411 -2304
2019-06-18 19:29:26 GMT 55.378235 -3.010981 11,925 359 412 -2368
2019-06-18 19:29:23 GMT 55.378235 -3.010981 12,000 359 412 -2752
2019-06-18 19:29:20 GMT 55.374817 -3.010837 12,075 359 412 -2752
2019-06-18 19:29:16 GMT 55.366810 -3.010337 12,375 359 415 -2496
2019-06-18 19:29:13 GMT 55.360714 -3.010004 12,425 359 415 -2432
2019-06-18 19:29:10 GMT 55.355312 -3.009671 12,525 359 415 -2432
2019-06-18 19:29:07 GMT 55.349167 -3.009285 12,600 359 417 -2432
2019-06-18 19:29:04 GMT 55.342976 -3.008922 12,750 359 419 -2368
2019-06-18 19:29:00 GMT 55.335995 -3.008506 12,900 359 421 -2432
2019-06-18 19:28:57 GMT 55.321980 -3.007674 13,125 358 423 -3072
2019-06-18 19:28:50 GMT 55.316116 -3.007346 13,425 358 423 -3776
2019-06-18 19:28:45 GMT 55.307922 -3.006780 13,550 358 423 -3968
2019-06-18 19:28:42 GMT 55.300873 -3.006376 14,150 359 423 -4416
2019-06-18 19:28:39 GMT 55.295399 -3.006092 14,100 359 422 -4672
2019-06-18 19:28:35 GMT 55.286819 -3.005569 14,425 359 422 -4736
2019-06-18 19:28:32 GMT 55.278221 -3.005094 14,775 359 426 -4224
2019-06-18 19:28:29 GMT 55.274689 -3.004922 14,875 359 426 -4224
2019-06-18 19:28:26 GMT 55.269611 -3.004594 15,050 359 426 -4160
2019-06-18 19:28:23 GMT 55.263657 -3.004276 15,200 359 428 -4288
2019-06-18 19:28:20 GMT 55.250198 -3.003468 15,600 359 430 -4416
2019-06-18 19:28:17 GMT 55.250198 -3.003468 15,775 359 431 -4288
2019-06-18 19:28:14 GMT 55.242611 -3.003096 15,925 359 433 -4032
2019-06-18 19:28:11 GMT 55.238186 -3.002846 16,175 359 437 -3264
2019-06-18 19:28:07 GMT 55.230457 -3.002347 16,375 359 442 -2688
2019-06-18 19:28:04 GMT 55.218124 -3.001598 16,575 359 446 -2752
2019-06-18 19:28:01 GMT 55.218124 -3.001598 16,675 358 451 -4864
2019-06-18 19:27:58 GMT 55.214817 -3.001432 16,750 358 448 -3072
2019-06-18 19:27:55 GMT 55.207787 -3.000932 17,125 358 451 -3520
2019-06-18 19:27:52 GMT 55.200714 -3.000516 17,075 358 450 -3456
2019-06-18 19:27:49 GMT 55.192379 -3.000017 17,300 358 452 -3904
2019-06-18 19:27:46 GMT 55.186981 -2.999600 17,600 358 453 -4672
2019-06-18 19:27:43 GMT 55.171524 -2.998685 18,125 358 451 -6336
2019-06-18 19:27:37 GMT 55.169010 -2.998519 18,350 358 451 -6400
2019-06-18 19:27:33 GMT 55.160706 -2.997894 18,750 358 450 -6080
2019-06-18 19:27:30 GMT 55.153648 -2.997437 19,000 358 450 -5568
2019-06-18 19:27:27 GMT 55.146973 -2.997006 19,350 358 452 -4672
2019-06-18 19:27:24 GMT 55.140747 -2.996602 19,500 358 455 -3712
2019-06-18 19:27:20 GMT 55.133194 -2.996117 19,625 358 455 -3712
2019-06-18 19:27:17 GMT 55.127701 -2.995794 20,000 359 460 -3904
2019-06-18 19:27:14 GMT 55.122177 -2.995522 20,100 359 460 -3904
2019-06-18 19:27:11 GMT 55.115753 -2.995148 20,300 359 466 -4096
2019-06-18 19:27:07 GMT 55.105042 -2.994501 20,600 359 468 -4416
2019-06-18 19:27:03 GMT 55.096848 -2.994017 20,875 358 469 -4928
2019-06-18 19:26:59 GMT 55.087311 -2.993441 22,500 357 477 -4352
2019-06-18 19:26:56 GMT 55.078186 -2.992859 21,400 358 471 -5056
2019-06-18 19:26:52 GMT 55.074276 -2.992609 22,200 358 472 -5184
2019-06-18 19:26:49 GMT 55.068146 -2.992240 21,875 358 472 -5184
2019-06-18 19:26:46 GMT 55.060730 -2.991694 22,525 358 474 -4800
2019-06-18 19:26:42 GMT 55.051559 -2.991111 22,500 358 474 -4800
2019-06-18 19:26:39 GMT 55.044109 -2.990528 23,125 355 480 -3968
2019-06-18 19:26:36 GMT 55.037498 -2.989863 23,150 355 480 -3968
2019-06-18 19:26:32 GMT 55.028656 -2.988531 23,400 353 481 -3648
2019-06-18 19:26:29 GMT 55.022919 -2.987312 23,550 352 482 -3264
2019-06-18 19:26:26 GMT 55.015015 -2.985119 23,900 347 485 -2176
2019-06-18 19:26:23 GMT 55.010593 -2.983704 23,800 350 485 -2752
2019-06-18 19:26:20 GMT 55.004471 -2.981496 23,925 348 485 -2368
2019-06-18 19:26:17 GMT 54.997047 -2.978377 24,075 343 484 -1600
2019-06-18 19:26:11 GMT 54.982040 -2.970752 24,275 343 484 -1664
2019-06-18 19:26:08 GMT 54.977783 -2.968247 25,525 338 469 -2048
2019-06-18 19:26:05 GMT 54.969864 -2.963158 24,450 339 482 -1984
2019-06-18 19:26:01 GMT 54.962402 -2.957988 24,525 339 482 -2048
2019-06-18 19:25:58 GMT 54.957104 -2.954157 24,675 338 480 -1984
2019-06-18 19:25:55 GMT 54.949329 -2.948497 24,850 338 478 -1920
2019-06-18 19:25:52 GMT 54.944023 -2.944586 25,000 338 477 -2112
2019-06-18 19:25:49 GMT 54.937134 -2.939570 24,975 338 477 -2112
2019-06-18 19:25:45 GMT 54.928196 -2.933100 25,200 338 473 -2112
2019-06-18 19:25:42 GMT 54.922981 -2.929271 25,250 338 472 -2112
2019-06-18 19:25:39 GMT 54.916512 -2.924694 25,500 338 468 -1984
2019-06-18 19:25:36 GMT 54.911316 -2.920990 25,475 338 468 -1920
2019-06-18 19:25:32 GMT 54.904175 -2.915871 25,625 338 464 -1792
2019-06-18 19:25:29 GMT 54.899380 -2.912459 25,650 338 464 -1792
2019-06-18 19:25:26 GMT 54.893051 -2.907903 25,700 337 464 -1856
2019-06-18 19:25:23 GMT 54.885181 -2.902055 25,850 337 465 -1984
2019-06-18 19:25:20 GMT 54.880096 -2.898129 26,100 336 466 -2304
2019-06-18 19:25:17 GMT 54.873821 -2.893150 26,000 335 465 -2432
2019-06-18 19:25:14 GMT 54.868744 -2.889000 26,125 335 466 -2368
2019-06-18 19:25:11 GMT 54.864513 -2.885492 26,200 335 466 -2368
2019-06-18 19:25:08 GMT 54.857529 -2.879630 26,500 334 467 -2368
2019-06-18 19:25:04 GMT 54.848602 -2.872036 26,475 334 468 -2368
2019-06-18 19:25:01 GMT 54.843979 -2.868078 26,625 334 468 -2368
2019-06-18 19:24:58 GMT 54.837387 -2.862423 26,800 334 469 -2368
2019-06-18 19:24:55 GMT 54.827644 -2.854115 27,100 334 471 -2432
2019-06-18 19:24:52 GMT 54.827644 -2.854115 27,025 334 470 -2368
2019-06-18 19:24:49 GMT 54.820240 -2.847789 27,625 334 471 -2432
2019-06-18 19:24:46 GMT 54.814796 -2.843129 27,225 334 472 -2432
2019-06-18 19:24:43 GMT 54.808140 -2.837469 27,525 334 474 -2496
2019-06-18 19:24:40 GMT 54.800308 -2.830837 27,500 334 474 -2496
2019-06-18 19:24:37 GMT 54.796780 -2.827814 27,650 334 474 -2496
2019-06-18 19:24:34 GMT 54.789284 -2.821489 27,800 334 475 -2496
2019-06-18 19:24:31 GMT 54.783371 -2.816495 27,800 334 475 -2496
2019-06-18 19:24:28 GMT 54.777458 -2.811418 27,925 334 476 -2496
2019-06-18 19:24:25 GMT 54.768768 -2.804099 28,175 334 477 -2496
2019-06-18 19:24:19 GMT 54.761631 -2.798018 28,375 334 480 -2496
2019-06-18 19:24:16 GMT 54.755672 -2.793024 28,475 334 480 -2496
2019-06-18 19:24:13 GMT 54.748123 -2.786650 28,600 334 480 -2496
2019-06-18 19:24:10 GMT 54.741753 -2.781206 28,675 334 482 -2432
2019-06-18 19:24:07 GMT 54.735748 -2.776129 28,750 334 482 -2432
2019-06-18 19:24:04 GMT 54.731747 -2.772799 28,950 334 483 -2432
2019-06-18 19:24:01 GMT 54.723312 -2.765647 29,075 334 485 -2432
2019-06-18 19:23:58 GMT 54.720108 -2.762900 29,150 334 488 -2496
2019-06-18 19:23:55 GMT 54.713242 -2.757164 29,275 334 486 -2496
2019-06-18 19:23:52 GMT 54.705597 -2.750702 29,425 334 487 -2560
2019-06-18 19:23:48 GMT 54.696690 -2.743170 29,675 334 487 -2560
2019-06-18 19:23:44 GMT 54.684170 -2.732599 29,825 335 488 -2496
2019-06-18 19:23:38 GMT 54.678490 -2.727855 30,050 334 488 -2496
2019-06-18 19:23:33 GMT 54.664291 -2.715870 30,225 334 488 -2432
2019-06-18 19:23:30 GMT 54.661869 -2.713790 30,275 334 489 -2432
2019-06-18 19:23:27 GMT 54.654556 -2.707645 30,475 334 489 -2496
2019-06-18 19:23:23 GMT 54.647251 -2.701472 30,625 335 490 -2496
2019-06-18 19:23:20 GMT 54.641144 -2.696336 30,700 335 490 -2432
2019-06-18 19:23:17 GMT 54.635056 -2.691246 30,850 335 490 -2304
2019-06-18 19:23:14 GMT 54.625305 -2.683007 31,225 335 490 -2240
2019-06-18 19:23:11 GMT 54.625305 -2.683007 31,150 335 490 -2240
2019-06-18 19:23:08 GMT 54.618393 -2.677190 31,200 335 490 -2240
2019-06-18 19:23:05 GMT 54.610245 -2.670427 31,650 335 490 -2368
2019-06-18 19:23:02 GMT 54.606983 -2.667680 31,525 335 490 -2304
2019-06-18 19:22:59 GMT 54.597244 -2.659499 31,575 335 490 -2304
2019-06-18 19:22:56 GMT 54.594372 -2.657110 31,725 335 490 -2304
2019-06-18 19:22:53 GMT 54.586258 -2.650290 31,900 335 489 -2304
2019-06-18 19:22:48 GMT 54.570812 -2.637385 32,025 335 488 -2304
2019-06-18 19:22:39 GMT 54.558701 -2.627267 32,375 335 483 -2240
2019-06-18 19:22:36 GMT 54.552704 -2.622178 32,725 334 482 -2176
2019-06-18 19:22:33 GMT 54.546249 -2.616766 32,725 334 482 -2176
2019-06-18 19:22:30 GMT 54.540695 -2.612083 32,700 334 478 -2176
2019-06-18 19:22:27 GMT 54.535480 -2.607755 32,775 334 479 -2176
2019-06-18 19:22:24 GMT 54.527149 -2.600680 32,875 334 478 -2176
2019-06-18 19:22:21 GMT 54.522026 -2.596352 33,025 334 476 -2240
2019-06-18 19:22:18 GMT 54.514938 -2.590431 33,325 334 474 -2240
2019-06-18 19:22:15 GMT 54.511368 -2.587447 33,300 334 473 -2304
2019-06-18 19:22:12 GMT 54.505096 -2.582110 33,325 334 472 -2368
2019-06-18 19:22:09 GMT 54.497269 -2.575567 33,500 334 467 -2560
2019-06-18 19:22:06 GMT 54.491070 -2.570301 33,700 334 453 -2176
2019-06-18 19:22:00 GMT 54.481808 -2.562561 33,825 334 461 -2496
2019-06-18 19:21:57 GMT 54.476440 -2.558037 34,150 334 453 -2176
2019-06-18 19:21:53 GMT 54.467377 -2.550493 34,175 334 453 -2176
2019-06-18 19:21:50 GMT 54.462116 -2.546082 34,225 334 450 -2112
2019-06-18 19:21:47 GMT 54.457272 -2.542003 34,550 335 447 -2176
2019-06-18 19:21:44 GMT 54.445404 -2.532106 34,500 335 447 -2176
2019-06-18 19:21:41 GMT 54.445404 -2.532106 34,650 335 447 -2176
2019-06-18 19:21:38 GMT 54.436138 -2.524359 34,725 335 448 -2176
2019-06-18 19:21:35 GMT 54.436138 -2.524359 34,775 335 448 -2176
2019-06-18 19:21:32 GMT 54.429428 -2.518777 34,825 335 448 -2176
2019-06-18 19:21:28 GMT 54.422733 -2.513123 35,100 334 448 -2240
2019-06-18 19:21:25 GMT 54.416027 -2.507546 35,175 335 449 -2304
2019-06-18 19:21:22 GMT 54.410843 -2.503186 35,225 335 449 -2304
2019-06-18 19:21:18 GMT 54.400387 -2.494479 35,500 335 449 -2368
2019-06-18 19:21:15 GMT 54.398525 -2.492898 37,050 335 454 -1920
2019-06-18 19:21:12 GMT 54.391846 -2.487272 36,250 335 450 -2304
2019-06-18 19:21:09 GMT 54.386608 -2.482993 35,775 335 449 -2368
2019-06-18 19:21:06 GMT 54.379120 -2.476771 36,100 335 451 -2240
2019-06-18 19:21:03 GMT 54.374226 -2.472756 36,000 335 450 -2240
2019-06-18 19:21:00 GMT 54.369385 -2.468678 36,100 335 451 -2240
2019-06-18 19:20:57 GMT 54.364120 -2.464350 36,325 335 452 -2240
2019-06-18 19:20:54 GMT 54.357746 -2.459023 36,300 335 453 -2176
2019-06-18 19:20:51 GMT 54.354347 -2.456277 36,475 335 453 -2176
2019-06-18 19:20:48 GMT 54.348312 -2.451244 36,825 335 454 -2240
2019-06-18 19:20:44 GMT 54.337772 -2.442544 36,650 335 453 -2176
2019-06-18 19:20:41 GMT 54.332520 -2.438157 36,725 335 454 -2240
2019-06-18 19:20:38 GMT 54.327625 -2.434054 36,950 335 454 -2112
2019-06-18 19:20:35 GMT 54.322311 -2.429675 37,025 335 454 -1984
2019-06-18 19:20:32 GMT 54.314392 -2.423132 37,400 335 455 -1088
2019-06-18 19:20:29 GMT 54.310593 -2.419981 37,350 335 462 64
2019-06-18 19:20:26 GMT 54.306442 -2.416576 37,350 335 455 -1472
2019-06-18 19:20:23 GMT 54.301186 -2.412165 37,350 335 455 -1408
2019-06-18 19:20:20 GMT 54.293610 -2.405925 37,475 335 456 -960
2019-06-18 19:20:17 GMT 54.287544 -2.400929 37,500 335 456 -960
2019-06-18 19:20:14 GMT 54.281113 -2.395585 37,525 335 459 -960
2019-06-18 19:20:11 GMT 54.276512 -2.391788 37,600 335 457 -960
2019-06-18 19:20:08 GMT 54.271206 -2.387426 37,600 335 458 -960
2019-06-18 19:20:04 GMT 54.264362 -2.381771 37,725 335 460 -1024
2019-06-18 19:20:01 GMT 54.260513 -2.378619 37,750 335 460 -1024
2019-06-18 19:19:58 GMT 54.254025 -2.373208 37,850 335 461 -960
2019-06-18 19:19:55 GMT 54.246719 -2.367311 38,000 335 462 -704
2019-06-18 19:19:52 GMT 54.241737 -2.363191 38,000 335 461 -128
2019-06-18 19:19:49 GMT 54.236336 -2.358748 38,000 335 461 -448
2019-06-18 19:19:46 GMT 54.229027 -2.352851 38,000 335 461 -192
2019-06-18 19:19:43 GMT 54.221375 -2.346523 38,000 335 461 -128
2019-06-18 19:19:40 GMT 54.219067 -2.344692 38,000 335 461 -128
2019-06-18 19:19:37 GMT 54.211395 -2.338440 38,000 335 461 -64
2019-06-18 19:19:34 GMT 54.207195 -2.334999 38,000 335 461 -64
2019-06-18 19:19:31 GMT 54.199886 -2.329021 38,000 335 461 -64
2019-06-18 19:19:28 GMT 54.193771 -2.324001 38,025 335 462 128
2019-06-18 19:19:25 GMT 54.188015 -2.319246 38,025 335 461 -192
2019-06-18 19:19:22 GMT 54.182243 -2.314561 38,025 335 461 -128
2019-06-18 19:19:19 GMT 54.177261 -2.310522 38,050 335 461 0
2019-06-18 19:19:16 GMT 54.171112 -2.305481 38,025 335 461 -128
2019-06-18 19:19:13 GMT 54.165764 -2.301070 38,050 335 461 0
2019-06-18 19:19:10 GMT 54.158844 -2.295436 38,050 335 461 0
2019-06-18 19:19:07 GMT 54.155777 -2.292925 38,025 335 461 0
2019-06-18 19:19:04 GMT 54.147720 -2.286333 38,050 335 461 64
2019-06-18 19:19:01 GMT 54.143875 -2.283194 38,025 335 461 64
2019-06-18 19:18:58 GMT 54.135818 -2.276603 38,025 335 462 128
2019-06-18 19:18:55 GMT 54.130478 -2.272231 38,025 335 462 128
2019-06-18 19:18:52 GMT 54.120071 -2.263733 38,000 335 462 64
2019-06-18 19:18:49 GMT 54.120071 -2.263733 38,000 335 463 0
2019-06-18 19:18:46 GMT 54.113525 -2.258397 38,000 335 463 64
2019-06-18 19:18:43 GMT 54.108505 -2.254298 38,000 335 463 0
2019-06-18 19:18:40 GMT 54.101578 -2.248666 38,000 335 463 0
2019-06-18 19:18:36 GMT 54.094631 -2.242988 38,000 335 463 -64
2019-06-18 19:18:33 GMT 54.087341 -2.237052 38,000 335 462 -64
2019-06-18 19:18:30 GMT 54.083862 -2.234227 38,000 335 463 -64
2019-06-18 19:18:27 GMT 54.077312 -2.228851 38,000 335 463 -64
2019-06-18 19:18:21 GMT 54.066139 -2.219723 38,000 335 463 -64
2019-06-18 19:18:18 GMT 54.060333 -2.215001 38,000 335 462 0
2019-06-18 19:18:15 GMT 54.054565 -2.210292 38,000 335 463 0
2019-06-18 19:18:12 GMT 54.048405 -2.205263 38,000 335 463 0
2019-06-18 19:18:09 GMT 54.041840 -2.199934 38,000 335 463 0
2019-06-18 19:18:06 GMT 54.034515 -2.193970 38,000 335 462 0
2019-06-18 19:18:03 GMT 54.032204 -2.192096 38,000 335 462 0
2019-06-18 19:18:00 GMT 54.024490 -2.185887 38,000 335 462 0
2019-06-18 19:17:57 GMT 54.020279 -2.182434 38,000 335 462 0
2019-06-18 19:17:54 GMT 54.008286 -2.172782 38,000 335 462 0
2019-06-18 19:17:51 GMT 54.001740 -2.167524 38,000 335 462 0
2019-06-18 19:17:48 GMT 54.001740 -2.167524 38,000 335 462 0
2019-06-18 19:17:45 GMT 53.995197 -2.162206 38,000 335 462 0
2019-06-18 19:17:42 GMT 53.990170 -2.158167 38,000 335 462 -64
2019-06-18 19:17:39 GMT 53.979366 -2.149443 38,000 335 462 -64
2019-06-18 19:17:36 GMT 53.979366 -2.149443 38,000 335 462 0
2019-06-18 19:17:33 GMT 53.972057 -2.143546 38,000 335 462 0
2019-06-18 19:17:30 GMT 53.965897 -2.138567 38,000 335 462 0
2019-06-18 19:17:26 GMT 53.959717 -2.133623 38,000 335 462 0
2019-06-18 19:17:23 GMT 53.953949 -2.128993 38,000 335 462 0
2019-06-18 19:17:20 GMT 53.948547 -2.124599 38,000 335 462 -64
2019-06-18 19:17:17 GMT 53.942406 -2.119634 38,000 335 462 -64
2019-06-18 19:17:14 GMT 53.936646 -2.114947 38,000 335 462 -128
2019-06-18 19:17:11 GMT 53.931606 -2.110910 38,025 335 462 -64
2019-06-18 19:17:08 GMT 53.925835 -2.106225 38,000 335 463 64
2019-06-18 19:17:05 GMT 53.920479 -2.101862 38,000 335 463 64
2019-06-18 19:17:02 GMT 53.913528 -2.096270 38,025 335 462 0
2019-06-18 19:16:59 GMT 53.900043 -2.085464 38,000 335 462 64
2019-06-18 19:16:56 GMT 53.900043 -2.085464 38,000 335 462 64
2019-06-18 19:16:53 GMT 53.896179 -2.082394 38,000 335 462 64
2019-06-18 19:16:50 GMT 53.891968 -2.078927 38,000 335 462 64
2019-06-18 19:16:47 GMT 53.886169 -2.074316 38,000 335 464 0
2019-06-18 19:16:44 GMT 53.877686 -2.067392 38,000 335 463 0
2019-06-18 19:16:41 GMT 53.872299 -2.063006 38,000 335 464 0
2019-06-18 19:16:38 GMT 53.868027 -2.059544 38,000 335 463 64
2019-06-18 19:16:35 GMT 53.861870 -2.054524 38,000 335 463 64
2019-06-18 19:16:32 GMT 53.855724 -2.049435 38,000 334 464 64
2019-06-18 19:16:29 GMT 53.845688 -2.041181 38,000 334 464 0
2019-06-18 19:16:23 GMT 53.839153 -2.035783 38,000 334 464 0
2019-06-18 19:16:19 GMT 53.830307 -2.028432 38,000 334 462 0
2019-06-18 19:16:16 GMT 53.824581 -2.023665 38,000 334 462 0
2019-06-18 19:16:12 GMT 53.816895 -2.017325 38,000 334 454 0
2019-06-18 19:16:08 GMT 53.810429 -2.011952 38,000 334 461 0
2019-06-18 19:16:05 GMT 53.803574 -2.006260 38,000 334 459 0
2019-06-18 19:16:02 GMT 53.800507 -2.003749 38,000 334 457 0
2019-06-18 19:15:59 GMT 53.792175 -1.996765 38,000 334 457 0
2019-06-18 19:15:55 GMT 53.785339 -1.991110 38,000 334 455 0
2019-06-18 19:15:52 GMT 53.779659 -1.986425 38,000 334 454 0
2019-06-18 19:15:49 GMT 53.774002 -1.981777 38,000 334 454 0
2019-06-18 19:15:46 GMT 53.762341 -1.972046 38,000 334 453 0
2019-06-18 19:15:43 GMT 53.758621 -1.968907 38,000 334 451 0
2019-06-18 19:15:40 GMT 53.758621 -1.968907 38,000 334 451 0
2019-06-18 19:15:37 GMT 53.752258 -1.963649 38,000 334 450 0
2019-06-18 19:15:34 GMT 53.747040 -1.959333 38,000 334 449 0
2019-06-18 19:15:31 GMT 53.740368 -1.953708 38,000 334 441 320
2019-06-18 19:15:28 GMT 53.735184 -1.949367 38,000 334 447 0
2019-06-18 19:15:25 GMT 53.728127 -1.943530 38,000 334 444 64
2019-06-18 19:15:22 GMT 53.722961 -1.939244 38,000 334 444 0
2019-06-18 19:15:19 GMT 53.717045 -1.934402 38,000 334 444 0
2019-06-18 19:15:16 GMT 53.714859 -1.932574 38,000 334 443 64
2019-06-18 19:15:13 GMT 53.701263 -1.921315 38,000 334 443 192
2019-06-18 19:15:10 GMT 53.701263 -1.921315 38,000 334 442 256
2019-06-18 19:15:07 GMT 53.696503 -1.917428 37,975 334 440 320
2019-06-18 19:15:04 GMT 53.689907 -1.911944 37,975 334 440 384
2019-06-18 19:15:01 GMT 53.685532 -1.908390 37,950 334 440 640
2019-06-18 19:14:58 GMT 53.678238 -1.902361 37,900 334 440 576
2019-06-18 19:14:55 GMT 53.669495 -1.895142 37,900 334 440 640
2019-06-18 19:14:52 GMT 53.669495 -1.895142 37,850 334 439 640
2019-06-18 19:14:49 GMT 53.663651 -1.890295 37,825 334 440 640
2019-06-18 19:14:46 GMT 53.657459 -1.885205 37,800 334 439 640
2019-06-18 19:14:43 GMT 53.653084 -1.881570 37,800 334 439 640
2019-06-18 19:14:40 GMT 53.641071 -1.871715 37,600 334 439 640
2019-06-18 19:14:37 GMT 53.634182 -1.865979 37,675 334 438 640
2019-06-18 19:14:34 GMT 53.634182 -1.865979 37,675 334 438 640
2019-06-18 19:14:31 GMT 53.628689 -1.861456 37,625 335 438 640
2019-06-18 19:14:28 GMT 53.626877 -1.860002 37,600 334 438 640
2019-06-18 19:14:25 GMT 53.619984 -1.854347 37,600 334 438 640
2019-06-18 19:14:22 GMT 53.615250 -1.850412 37,525 335 438 640
2019-06-18 19:14:19 GMT 53.608337 -1.844761 37,500 335 438 640
2019-06-18 19:14:13 GMT 53.597076 -1.835502 37,450 334 437 576
2019-06-18 19:14:10 GMT 53.592007 -1.831324 37,425 334 437 576
2019-06-18 19:14:07 GMT 53.586914 -1.827183 37,350 334 437 576
2019-06-18 19:14:04 GMT 53.581116 -1.822438 37,375 335 436 576
2019-06-18 19:14:01 GMT 53.576065 -1.818316 37,175 335 436 576
2019-06-18 19:13:57 GMT 53.562653 -1.807329 37,300 335 435 576
2019-06-18 19:13:54 GMT 53.562653 -1.807329 37,275 335 435 576
2019-06-18 19:13:51 GMT 53.557251 -1.802935 37,175 335 434 576
2019-06-18 19:13:48 GMT 53.552536 -1.799090 37,200 335 434 576
2019-06-18 19:13:45 GMT 53.544991 -1.792953 37,025 335 433 576
2019-06-18 19:13:42 GMT 53.539589 -1.788510 37,175 335 434 576
2019-06-18 19:13:39 GMT 53.537773 -1.787056 37,125 335 433 576
2019-06-18 19:13:36 GMT 53.531673 -1.782047 37,050 334 432 512
2019-06-18 19:13:33 GMT 53.526276 -1.777604 37,050 334 432 512
2019-06-18 19:13:30 GMT 53.520859 -1.773193 37,025 334 432 512
2019-06-18 19:13:27 GMT 53.513351 -1.767072 37,000 335 431 512
2019-06-18 19:13:24 GMT 53.509415 -1.763777 36,950 335 431 512
2019-06-18 19:13:21 GMT 53.503693 -1.759147 36,950 334 430 512
2019-06-18 19:13:18 GMT 53.494400 -1.751535 36,925 335 430 512
2019-06-18 19:13:15 GMT 53.494400 -1.751535 36,900 335 430 512
2019-06-18 19:13:12 GMT 53.487625 -1.746041 36,875 335 428 640
2019-06-18 19:13:09 GMT 53.481583 -1.741098 36,875 335 428 832
2019-06-18 19:13:06 GMT 53.477627 -1.737940 36,800 335 428 1152
2019-06-18 19:13:03 GMT 53.470181 -1.731882 36,125 335 429 1600
2019-06-18 19:13:00 GMT 53.466614 -1.728934 36,700 335 429 1728
2019-06-18 19:12:57 GMT 53.454071 -1.718811 36,575 335 431 1920
2019-06-18 19:12:54 GMT 53.454071 -1.718811 36,500 335 433 1856
2019-06-18 19:12:51 GMT 53.450115 -1.715564 35,850 335 434 1728
2019-06-18 19:12:48 GMT 53.446884 -1.712926 36,225 335 434 1728
2019-06-18 19:12:45 GMT 53.433868 -1.702396 36,200 335 436 1600
2019-06-18 19:12:42 GMT 53.433868 -1.702396 36,150 335 436 1536
2019-06-18 19:12:39 GMT 53.428070 -1.697623 36,075 335 436 1472
2019-06-18 19:12:36 GMT 53.422276 -1.692945 36,000 334 437 1280
2019-06-18 19:12:33 GMT 53.416077 -1.687892 35,950 335 438 1152
2019-06-18 19:12:30 GMT 53.411362 -1.684047 35,925 335 438 1152
2019-06-18 19:12:27 GMT 53.407707 -1.681070 35,775 335 438 1088
2019-06-18 19:12:24 GMT 53.401199 -1.675729 35,750 335 438 1088
2019-06-18 19:12:21 GMT 53.395752 -1.671334 35,675 335 438 1024
2019-06-18 19:12:18 GMT 53.389549 -1.666287 34,750 335 437 1600
2019-06-18 19:12:15 GMT 53.384445 -1.662153 35,625 335 438 1024
2019-06-18 19:12:12 GMT 53.372498 -1.652344 35,550 335 438 960
2019-06-18 19:12:09 GMT 53.372498 -1.652344 35,450 335 436 768
2019-06-18 19:12:05 GMT 53.366318 -1.647321 35,450 335 436 768
2019-06-18 19:12:02 GMT 53.362316 -1.644152 34,450 335 436 768
2019-06-18 19:11:59 GMT 53.357243 -1.640033 35,325 335 436 960
2019-06-18 19:11:56 GMT 53.350353 -1.634459 35,275 335 436 1024
2019-06-18 19:11:53 GMT 53.343842 -1.629194 35,200 335 435 1024
2019-06-18 19:11:50 GMT 53.339134 -1.625411 35,200 335 435 1088
2019-06-18 19:11:47 GMT 53.332989 -1.620403 35,025 335 435 1088
2019-06-18 19:11:44 GMT 53.329357 -1.617494 35,100 335 435 1152
2019-06-18 19:11:41 GMT 53.323929 -1.613107 35,000 335 435 1280
2019-06-18 19:11:38 GMT 53.317795 -1.608163 34,975 335 435 1344
2019-06-18 19:11:35 GMT 53.311623 -1.603196 34,925 335 435 1472
2019-06-18 19:11:32 GMT 53.306580 -1.599060 34,775 335 436 1600
2019-06-18 19:11:29 GMT 53.301132 -1.594666 34,775 335 436 1600
2019-06-18 19:11:26 GMT 53.290211 -1.585909 34,450 335 438 1408
2019-06-18 19:11:23 GMT 53.284389 -1.581223 34,425 335 439 1216
2019-06-18 19:11:20 GMT 53.284389 -1.581223 34,500 335 438 1536
2019-06-18 19:11:17 GMT 53.279297 -1.577087 34,450 335 438 1472
2019-06-18 19:11:14 GMT 53.275311 -1.573872 34,350 335 438 1408
2019-06-18 19:11:11 GMT 53.263256 -1.564098 34,200 335 439 1280
2019-06-18 19:11:08 GMT 53.263256 -1.564098 34,200 335 439 1280
2019-06-18 19:11:05 GMT 53.257462 -1.559431 33,925 335 437 1024
2019-06-18 19:11:02 GMT 53.250870 -1.554095 34,075 335 438 1152
2019-06-18 19:10:59 GMT 53.246887 -1.550877 33,975 335 438 1024
2019-06-18 19:10:56 GMT 53.241028 -1.546169 33,975 335 438 1024
2019-06-18 19:10:53 GMT 53.235558 -1.541721 33,850 335 437 896
2019-06-18 19:10:50 GMT 53.229767 -1.537066 33,850 335 437 768
2019-06-18 19:10:47 GMT 53.225372 -1.533534 33,825 335 437 832
2019-06-18 19:10:44 GMT 53.221031 -1.530008 33,800 335 436 768
2019-06-18 19:10:41 GMT 53.213398 -1.523868 33,725 335 435 576
2019-06-18 19:10:38 GMT 53.208370 -1.519748 33,700 335 435 576
2019-06-18 19:10:35 GMT 53.201843 -1.514544 33,675 335 434 640
2019-06-18 19:10:32 GMT 53.197895 -1.511347 33,650 335 432 960
2019-06-18 19:10:29 GMT 53.192867 -1.507308 33,525 335 431 1024
2019-06-18 19:10:26 GMT 53.188168 -1.503592 33,550 335 431 1088
2019-06-18 19:10:23 GMT 53.181381 -1.498064 33,475 335 431 1088
2019-06-18 19:10:20 GMT 53.177399 -1.494925 33,425 335 431 1152
2019-06-18 19:10:17 GMT 53.169891 -1.488961 32,075 335 430 1344
2019-06-18 19:10:14 GMT 53.164856 -1.484959 33,250 335 431 1344
2019-06-18 19:10:11 GMT 53.159817 -1.480973 33,075 335 430 1344
2019-06-18 19:10:08 GMT 53.153366 -1.475856 33,175 335 430 1344
2019-06-18 19:10:05 GMT 53.149384 -1.472717 33,100 335 430 1344
2019-06-18 19:10:02 GMT 53.138992 -1.464478 32,950 335 431 1408
2019-06-18 19:09:59 GMT 53.138992 -1.464478 32,925 335 431 1664
2019-06-18 19:09:56 GMT 53.134678 -1.461101 32,900 335 431 1536
2019-06-18 19:09:53 GMT 53.127457 -1.455453 32,850 335 431 1536
2019-06-18 19:09:50 GMT 53.115265 -1.445833 32,550 333 430 1536
2019-06-18 19:09:46 GMT 53.115265 -1.445833 32,625 335 431 1664
2019-06-18 19:09:43 GMT 53.109512 -1.441171 32,575 334 431 1600
2019-06-18 19:09:40 GMT 53.105576 -1.437953 32,500 334 431 1600
2019-06-18 19:09:37 GMT 53.098892 -1.432146 32,350 331 429 1536
2019-06-18 19:09:34 GMT 53.094406 -1.427994 32,300 331 429 1536
2019-06-18 19:09:31 GMT 53.087894 -1.421709 32,150 329 428 1536
2019-06-18 19:09:28 GMT 53.082504 -1.416245 32,125 329 428 1536
2019-06-18 19:09:25 GMT 53.080166 -1.413783 32,075 329 428 1536
2019-06-18 19:09:22 GMT 53.074081 -1.407623 32,000 329 428 1536
2019-06-18 19:09:19 GMT 53.067673 -1.401138 31,875 329 429 1472
2019-06-18 19:09:16 GMT 53.059570 -1.392899 31,775 329 429 1472
2019-06-18 19:09:13 GMT 53.057865 -1.391183 31,750 329 429 1472
2019-06-18 19:09:10 GMT 53.053162 -1.386337 31,575 329 429 1408
2019-06-18 19:09:07 GMT 53.044052 -1.377106 31,550 329 428 1408
2019-06-18 19:09:01 GMT 53.039337 -1.372299 31,475 329 428 1600
2019-06-18 19:08:58 GMT 53.031239 -1.364110 31,350 329 428 1664
2019-06-18 19:08:55 GMT 53.026520 -1.359329 31,300 329 428 1664
2019-06-18 19:08:52 GMT 53.023788 -1.356576 31,250 329 429 1600
2019-06-18 19:08:49 GMT 53.019413 -1.352182 31,200 329 429 1536
2019-06-18 19:08:46 GMT 53.012650 -1.345291 31,025 329 429 1408
2019-06-18 19:08:43 GMT 53.009262 -1.341858 30,975 329 429 1408
2019-06-18 19:08:40 GMT 53.002853 -1.335373 30,925 329 428 1344
2019-06-18 19:08:37 GMT 52.995766 -1.328247 30,825 329 427 1344
2019-06-18 19:08:34 GMT 52.985664 -1.317967 30,700 329 427 1216
2019-06-18 19:08:31 GMT 52.985664 -1.317967 30,700 329 427 1216
2019-06-18 19:08:28 GMT 52.983292 -1.315613 30,675 329 426 1152
2019-06-18 19:08:25 GMT 52.976913 -1.309099 30,500 329 425 1152
2019-06-18 19:08:22 GMT 52.972584 -1.304705 30,550 329 425 1088
2019-06-18 19:08:19 GMT 52.967182 -1.299290 30,475 329 425 1152
2019-06-18 19:08:16 GMT 52.956528 -1.288452 30,400 329 424 1216
2019-06-18 19:08:13 GMT 52.956528 -1.288452 30,225 329 423 1408
2019-06-18 19:08:10 GMT 52.952820 -1.284714 30,325 329 423 1344
2019-06-18 19:08:07 GMT 52.946190 -1.278024 30,225 329 418 1728
2019-06-18 19:08:04 GMT 52.942841 -1.274643 30,175 329 423 1472
2019-06-18 19:08:01 GMT 52.938183 -1.269863 30,075 329 421 1088
2019-06-18 19:07:58 GMT 52.928543 -1.260132 30,000 329 421 768
2019-06-18 19:07:55 GMT 52.928543 -1.260132 30,000 329 419 960
2019-06-18 19:07:52 GMT 52.922260 -1.253775 29,925 329 418 1664
2019-06-18 19:07:49 GMT 52.917938 -1.249466 29,875 329 418 1408
2019-06-18 19:07:46 GMT 52.912354 -1.243820 29,825 329 418 1664
2019-06-18 19:07:43 GMT 52.902466 -1.233826 29,525 329 418 1792
2019-06-18 19:07:40 GMT 52.902466 -1.233826 29,475 329 418 1856
2019-06-18 19:07:37 GMT 52.897522 -1.228867 29,550 329 418 1728
2019-06-18 19:07:34 GMT 52.892883 -1.224191 29,500 329 418 1792
2019-06-18 19:07:31 GMT 52.886929 -1.218227 29,375 329 419 1920
2019-06-18 19:07:28 GMT 52.882645 -1.213911 29,275 329 419 1984
2019-06-18 19:07:25 GMT 52.876694 -1.207962 29,175 329 419 2048
2019-06-18 19:07:22 GMT 52.873398 -1.204605 29,000 329 420 2112
2019-06-18 19:07:19 GMT 52.866440 -1.197586 28,975 329 420 2112
2019-06-18 19:07:16 GMT 52.864792 -1.195984 28,875 329 421 2176
2019-06-18 19:07:13 GMT 52.858810 -1.189976 28,775 329 421 2112
2019-06-18 19:07:10 GMT 52.851826 -1.182914 28,625 329 421 2112
2019-06-18 19:07:07 GMT 52.847870 -1.178911 28,550 329 422 1920
2019-06-18 19:07:04 GMT 52.844513 -1.175613 28,425 329 422 1920
2019-06-18 19:07:01 GMT 52.837875 -1.168900 28,350 329 422 1728
2019-06-18 19:06:58 GMT 52.831203 -1.162197 28,325 329 422 1536
2019-06-18 19:06:55 GMT 52.826874 -1.157881 28,200 329 421 1408
2019-06-18 19:06:52 GMT 52.824547 -1.155526 28,075 329 421 1472
2019-06-18 19:06:49 GMT 52.818260 -1.149170 28,050 329 421 1600
2019-06-18 19:06:46 GMT 52.812584 -1.143520 27,975 329 420 1792
2019-06-18 19:06:43 GMT 52.808624 -1.139518 27,900 329 420 1920
2019-06-18 19:06:40 GMT 52.802341 -1.133161 27,700 329 420 1856
2019-06-18 19:06:37 GMT 52.798004 -1.128845 27,675 329 420 1856
2019-06-18 19:06:34 GMT 52.792374 -1.123199 27,625 329 420 1920
2019-06-18 19:06:31 GMT 52.787724 -1.118565 27,525 329 420 2176
2019-06-18 19:06:28 GMT 52.783722 -1.114578 27,350 329 420 2240
2019-06-18 19:06:25 GMT 52.779064 -1.109933 27,350 329 420 2304
2019-06-18 19:06:22 GMT 52.774750 -1.105576 27,100 329 423 2368
2019-06-18 19:06:19 GMT 52.769760 -1.100540 26,150 329 426 2112
2019-06-18 19:06:16 GMT 52.764084 -1.094894 26,975 329 424 2368
2019-06-18 19:06:13 GMT 52.751320 -1.082153 26,775 329 425 2368
2019-06-18 19:06:10 GMT 52.751320 -1.082153 26,675 329 425 2368
2019-06-18 19:06:07 GMT 52.748657 -1.079483 26,550 329 425 2304
2019-06-18 19:06:04 GMT 52.743622 -1.074448 26,400 329 425 2112
2019-06-18 19:06:01 GMT 52.738239 -1.069048 26,250 329 426 2048
2019-06-18 19:05:58 GMT 52.734512 -1.065369 26,275 329 426 1984
2019-06-18 19:05:55 GMT 52.728462 -1.059317 26,175 329 426 2112
2019-06-18 19:05:52 GMT 52.718037 -1.048880 26,025 329 427 1984
2019-06-18 19:05:49 GMT 52.718037 -1.048880 25,975 329 427 1920
2019-06-18 19:05:46 GMT 52.713272 -1.044159 25,875 329 427 1856
2019-06-18 19:05:43 GMT 52.707550 -1.038437 25,750 329 427 1664
2019-06-18 19:05:40 GMT 52.697433 -1.028290 25,575 329 427 1600
2019-06-18 19:05:37 GMT 52.697433 -1.028290 25,575 329 425 1536
2019-06-18 19:05:34 GMT 52.692059 -1.022906 25,525 329 425 1536
2019-06-18 19:05:31 GMT 52.688057 -1.018903 25,450 329 425 1600
2019-06-18 19:05:28 GMT 52.682980 -1.013881 25,350 329 424 1664
2019-06-18 19:05:25 GMT 52.677979 -1.008835 25,350 329 424 1856
2019-06-18 19:05:22 GMT 52.665894 -0.996857 25,175 329 425 2368
2019-06-18 19:05:19 GMT 52.665894 -0.996857 24,675 329 426 2560
2019-06-18 19:05:16 GMT 52.663197 -0.994184 24,875 329 425 2624
2019-06-18 19:05:13 GMT 52.657837 -0.988846 24,875 329 425 2624
2019-06-18 19:05:10 GMT 52.652756 -0.983810 24,650 329 427 2560
2019-06-18 19:05:07 GMT 52.647694 -0.978803 24,500 329 427 2560
2019-06-18 19:05:03 GMT 52.640945 -0.972061 24,475 329 428 2560
2019-06-18 19:05:00 GMT 52.633450 -0.964678 24,225 329 429 2176
2019-06-18 19:04:57 GMT 52.630417 -0.961609 24,125 329 429 2112
2019-06-18 19:04:54 GMT 52.624977 -0.956203 24,075 329 429 2048
2019-06-18 19:04:51 GMT 52.620228 -0.951494 23,975 329 429 2176
2019-06-18 19:04:48 GMT 52.616833 -0.948120 23,875 329 430 2048
2019-06-18 19:04:45 GMT 52.611012 -0.942392 23,625 329 429 2048
2019-06-18 19:04:42 GMT 52.604553 -0.936050 23,575 329 429 2048
2019-06-18 19:04:39 GMT 52.598099 -0.929642 23,525 329 429 2048
2019-06-18 19:04:36 GMT 52.595032 -0.926590 23,500 329 429 2048
2019-06-18 19:04:33 GMT 52.589272 -0.920890 23,375 330 429 1984
2019-06-18 19:04:30 GMT 52.583130 -0.914841 23,025 329 428 1792
2019-06-18 19:04:27 GMT 52.579403 -0.911159 23,150 330 429 1728
2019-06-18 19:04:24 GMT 52.574295 -0.906143 23,050 329 428 1792
2019-06-18 19:04:21 GMT 52.568184 -0.900094 23,000 329 428 1920
2019-06-18 19:04:18 GMT 52.564831 -0.896798 22,750 329 426 1408
2019-06-18 19:04:15 GMT 52.558044 -0.890121 22,825 329 427 1920
2019-06-18 19:04:12 GMT 52.553970 -0.886078 22,750 329 426 1408
2019-06-18 19:04:09 GMT 52.549236 -0.881417 22,675 329 427 1856
2019-06-18 19:04:06 GMT 52.543854 -0.876083 22,300 329 426 1472
2019-06-18 19:04:03 GMT 52.540146 -0.872421 22,425 329 424 1344
2019-06-18 19:04:00 GMT 52.533737 -0.866089 22,400 329 424 1344
2019-06-18 19:03:57 GMT 52.530384 -0.862819 22,350 330 423 1152
2019-06-18 19:03:54 GMT 52.523392 -0.855865 22,225 329 421 1088
2019-06-18 19:03:51 GMT 52.518402 -0.850983 22,225 330 418 1408
2019-06-18 19:03:48 GMT 52.513393 -0.846026 22,175 330 418 1408
2019-06-18 19:03:44 GMT 52.505814 -0.838547 21,925 330 416 1600
2019-06-18 19:03:41 GMT 52.502838 -0.835648 22,000 330 416 1600
2019-06-18 19:03:38 GMT 52.498215 -0.831116 21,875 329 414 1472
2019-06-18 19:03:35 GMT 52.490341 -0.823364 21,800 329 413 1408
2019-06-18 19:03:32 GMT 52.488068 -0.821071 21,775 329 412 1408
2019-06-18 19:03:29 GMT 52.482193 -0.815277 21,700 329 411 1664
2019-06-18 19:03:26 GMT 52.477615 -0.810776 21,550 329 410 1920
2019-06-18 19:03:23 GMT 52.471775 -0.804984 21,450 329 408 1920
2019-06-18 19:03:20 GMT 52.467590 -0.800781 21,375 329 409 1856
2019-06-18 19:03:17 GMT 52.463394 -0.796587 21,325 329 408 1920
2019-06-18 19:03:14 GMT 52.457565 -0.790787 21,250 329 408 1920
2019-06-18 19:03:11 GMT 52.448273 -0.781479 21,125 329 408 1792
2019-06-18 19:03:08 GMT 52.448273 -0.781479 20,950 330 405 2112
2019-06-18 19:03:05 GMT 52.443146 -0.776341 20,975 329 406 2048
2019-06-18 19:03:02 GMT 52.440582 -0.773830 20,475 329 405 2432
2019-06-18 19:02:59 GMT 52.433834 -0.767081 20,800 329 405 2176
2019-06-18 19:02:56 GMT 52.428761 -0.761902 20,700 329 405 2304
2019-06-18 19:02:53 GMT 52.420753 -0.753976 20,425 329 405 2368
2019-06-18 19:02:50 GMT 52.420753 -0.753976 20,375 329 406 2304
2019-06-18 19:02:47 GMT 52.415955 -0.749130 20,175 330 405 2112
2019-06-18 19:02:44 GMT 52.410461 -0.743790 20,225 331 405 2048
2019-06-18 19:02:41 GMT 52.405251 -0.738909 17,925 337 409 2304
2019-06-18 19:02:38 GMT 52.392727 -0.729021 19,900 336 409 2304
2019-06-18 19:02:34 GMT 52.392727 -0.729021 19,875 338 410 2304
2019-06-18 19:02:31 GMT 52.388119 -0.726039 19,775 340 410 2240
2019-06-18 19:02:28 GMT 52.383087 -0.723267 19,600 343 412 2112
2019-06-18 19:02:25 GMT 52.376907 -0.720215 19,350 346 413 2048
2019-06-18 19:02:22 GMT 52.370987 -0.717800 19,425 347 413 2048
2019-06-18 19:02:19 GMT 52.366520 -0.716152 19,100 348 413 2112
2019-06-18 19:02:16 GMT 52.360519 -0.714035 19,275 348 412 2112
2019-06-18 19:02:13 GMT 52.354973 -0.711993 19,125 348 412 2112
2019-06-18 19:02:10 GMT 52.348251 -0.709610 19,000 348 411 2048
2019-06-18 19:02:07 GMT 52.343056 -0.707755 18,925 348 410 2112
2019-06-18 19:02:04 GMT 52.336399 -0.705322 18,825 348 410 2112
2019-06-18 19:02:01 GMT 52.334164 -0.704538 18,750 348 409 2048
2019-06-18 19:01:58 GMT 52.326050 -0.701599 18,400 348 408 2240
2019-06-18 19:01:55 GMT 52.321270 -0.699829 18,500 348 408 2176
2019-06-18 19:01:52 GMT 52.315731 -0.697789 18,425 348 407 2560
2019-06-18 19:01:49 GMT 52.310989 -0.696030 18,300 348 407 2496
2019-06-18 19:01:46 GMT 52.304371 -0.693551 18,150 348 407 2624
2019-06-18 19:01:43 GMT 52.298538 -0.691452 18,050 348 406 2688
2019-06-18 19:01:40 GMT 52.295975 -0.690460 17,900 348 407 2944
2019-06-18 19:01:37 GMT 52.289017 -0.687943 17,525 348 407 2944
2019-06-18 19:01:31 GMT 52.276886 -0.683441 17,475 348 407 2944
2019-06-18 19:01:28 GMT 52.270992 -0.681309 17,375 348 408 2752
2019-06-18 19:01:25 GMT 52.267315 -0.679975 17,150 348 408 2688
2019-06-18 19:01:22 GMT 52.259216 -0.677032 17,125 348 408 2624
2019-06-18 19:01:19 GMT 52.253723 -0.675049 17,025 348 408 2624
2019-06-18 19:01:16 GMT 52.251846 -0.674362 16,850 348 408 2624
2019-06-18 19:01:13 GMT 52.246353 -0.672302 16,475 349 401 2560
2019-06-18 19:01:10 GMT 52.238617 -0.669479 16,575 348 408 2560
2019-06-18 19:01:07 GMT 52.234222 -0.667877 16,450 348 407 2368
2019-06-18 19:01:04 GMT 52.222488 -0.663653 16,275 348 406 2112
2019-06-18 19:00:58 GMT 52.215866 -0.661240 16,025 348 404 2048
2019-06-18 19:00:55 GMT 52.211498 -0.659729 15,950 349 402 2496
2019-06-18 19:00:52 GMT 52.208588 -0.658722 15,850 349 402 2304
2019-06-18 19:00:49 GMT 52.201675 -0.656357 15,900 349 402 2432
2019-06-18 19:00:46 GMT 52.194031 -0.653763 15,500 349 401 2624
2019-06-18 19:00:43 GMT 52.189297 -0.652196 15,550 349 401 2624
2019-06-18 19:00:40 GMT 52.184593 -0.650626 15,475 349 401 2688
2019-06-18 19:00:37 GMT 52.172287 -0.646515 15,200 349 399 2560
2019-06-18 19:00:34 GMT 52.172287 -0.646515 15,050 349 399 2560
2019-06-18 19:00:31 GMT 52.165787 -0.644348 15,000 349 399 2560
2019-06-18 19:00:28 GMT 52.162170 -0.643158 14,675 348 396 2368
2019-06-18 19:00:25 GMT 52.158569 -0.641915 14,775 348 397 2432
2019-06-18 19:00:22 GMT 52.153152 -0.640030 14,700 348 396 2368
2019-06-18 19:00:19 GMT 52.146000 -0.637521 14,600 348 396 2304
2019-06-18 19:00:16 GMT 52.142441 -0.636215 14,450 348 395 2240
2019-06-18 19:00:13 GMT 52.134613 -0.633392 14,325 348 393 2304
2019-06-18 19:00:10 GMT 52.129303 -0.631485 14,225 348 392 2304
2019-06-18 19:00:07 GMT 52.123657 -0.629438 14,100 348 391 2368
2019-06-18 19:00:04 GMT 52.120834 -0.628433 14,025 348 390 2432
2019-06-18 19:00:01 GMT 52.113789 -0.625907 13,825 348 388 2688
2019-06-18 18:59:58 GMT 52.105034 -0.622768 13,500 348 387 2496
2019-06-18 18:59:55 GMT 52.105034 -0.622768 13,600 348 388 2560
2019-06-18 18:59:52 GMT 52.098377 -0.620335 13,500 348 387 2368
2019-06-18 18:59:49 GMT 52.092094 -0.618059 13,425 348 386 2304
2019-06-18 18:59:46 GMT 52.088654 -0.616837 13,150 348 384 2432
2019-06-18 18:59:43 GMT 52.083111 -0.614764 13,000 348 383 2624
2019-06-18 18:59:40 GMT 52.078949 -0.613251 13,000 348 382 2880
2019-06-18 18:59:37 GMT 52.073090 -0.611115 12,850 348 382 3008
2019-06-18 18:59:34 GMT 52.065170 -0.608215 12,550 348 381 3072
2019-06-18 18:59:31 GMT 52.062767 -0.607387 12,400 348 381 3136
2019-06-18 18:59:28 GMT 52.055878 -0.604858 12,375 348 381 3136
2019-06-18 18:59:22 GMT 52.045944 -0.601196 12,050 348 380 2688
2019-06-18 18:59:19 GMT 52.041119 -0.599461 11,925 348 380 2688
2019-06-18 18:59:16 GMT 52.038746 -0.598598 11,825 348 380 2496
2019-06-18 18:59:13 GMT 52.033264 -0.596542 11,750 348 379 2240
2019-06-18 18:59:10 GMT 52.025757 -0.593811 11,475 348 369 1216
2019-06-18 18:59:07 GMT 52.020355 -0.591849 11,500 348 374 1536
2019-06-18 18:59:04 GMT 52.014954 -0.589905 11,450 348 373 1408
2019-06-18 18:59:01 GMT 52.011932 -0.588789 11,375 348 368 1088
2019-06-18 18:58:58 GMT 52.005646 -0.586513 11,325 348 365 960
2019-06-18 18:58:55 GMT 52.001038 -0.584869 11,200 348 360 1024
2019-06-18 18:58:52 GMT 51.997826 -0.583766 11,100 348 341 960
2019-06-18 18:58:49 GMT 51.991680 -0.581569 11,175 348 353 960
2019-06-18 18:58:46 GMT 51.986282 -0.579686 11,100 348 347 960
2019-06-18 18:58:43 GMT 51.981907 -0.578116 11,075 348 345 960
2019-06-18 18:58:40 GMT 51.977249 -0.576468 11,050 348 342 960
2019-06-18 18:58:37 GMT 51.969616 -0.573879 10,950 349 332 1024
2019-06-18 18:58:31 GMT 51.964188 -0.572128 10,900 349 326 1152
2019-06-18 18:58:28 GMT 51.959747 -0.570679 10,850 349 323 1280
2019-06-18 18:58:25 GMT 51.954437 -0.569013 10,775 350 320 1472
2019-06-18 18:58:22 GMT 51.947525 -0.566864 10,500 350 314 2176
2019-06-18 18:58:19 GMT 51.942123 -0.565186 10,575 350 312 2496
2019-06-18 18:58:16 GMT 51.942123 -0.565186 10,475 350 312 2624
2019-06-18 18:58:13 GMT 51.938141 -0.564041 10,300 350 310 2944
2019-06-18 18:58:09 GMT 51.932514 -0.562343 10,250 350 309 3392
2019-06-18 18:58:06 GMT 51.926880 -0.560608 10,000 350 309 3392
2019-06-18 18:58:03 GMT 51.925205 -0.560146 9,825 350 309 3200
2019-06-18 18:58:00 GMT 51.919006 -0.558319 9,725 350 309 3200
2019-06-18 18:57:57 GMT 51.915615 -0.557321 9,500 350 309 3008
2019-06-18 18:57:54 GMT 51.911407 -0.556030 9,450 350 308 2944
2019-06-18 18:57:51 GMT 51.908073 -0.554967 9,250 350 306 3136
2019-06-18 18:57:48 GMT 51.902802 -0.553360 9,000 349 305 3200
2019-06-18 18:57:45 GMT 51.898087 -0.551834 8,950 349 304 3264
2019-06-18 18:57:42 GMT 51.894199 -0.550572 8,700 349 304 3264
2019-06-18 18:57:39 GMT 51.891685 -0.549774 8,500 349 304 3264
2019-06-18 18:57:36 GMT 51.887032 -0.548248 8,325 349 304 3264
2019-06-18 18:57:33 GMT 51.882614 -0.546718 8,275 349 303 3072
2019-06-18 18:57:30 GMT 51.876602 -0.544739 8,100 349 301 2816
2019-06-18 18:57:27 GMT 51.873344 -0.543594 8,000 349 300 2688
2019-06-18 18:57:23 GMT 51.869293 -0.542190 7,925 349 298 2624
2019-06-18 18:57:20 GMT 51.864964 -0.540771 7,750 348 296 2432
2019-06-18 18:57:17 GMT 51.860401 -0.539169 7,600 348 293 2112
2019-06-18 18:57:14 GMT 51.857483 -0.538182 7,425 348 289 1792
2019-06-18 18:57:11 GMT 51.852264 -0.536326 7,425 348 283 1536
2019-06-18 18:57:08 GMT 51.845856 -0.534025 7,300 348 281 1472
2019-06-18 18:57:02 GMT 51.840851 -0.532227 7,175 347 273 1600
2019-06-18 18:56:59 GMT 51.836929 -0.530684 7,125 346 266 1536
2019-06-18 18:56:56 GMT 51.832611 -0.528946 7,075 345 265 1536
2019-06-18 18:56:52 GMT 51.829819 -0.527573 6,850 332 245 1344
2019-06-18 18:56:49 GMT 51.825119 -0.524894 6,925 341 257 1536
2019-06-18 18:56:46 GMT 51.822418 -0.522816 6,750 320 230 576
2019-06-18 18:56:43 GMT 51.820274 -0.520782 6,725 326 239 1024
2019-06-18 18:56:40 GMT 51.817902 -0.518188 6,700 322 233 704
2019-06-18 18:56:37 GMT 51.814911 -0.513834 6,675 317 228 512
2019-06-18 18:56:34 GMT 51.812164 -0.508637 6,625 308 213 1088
2019-06-18 18:56:31 GMT 51.810150 -0.503367 6,525 278 187 1920
2019-06-18 18:56:28 GMT 51.810150 -0.503367 6,525 278 187 1920
2019-06-18 18:56:25 GMT 51.808823 -0.498428 6,450 287 195 1472
2019-06-18 18:56:22 GMT 51.808170 -0.494537 6,400 281 189 1792
2019-06-18 18:56:18 GMT 51.807659 -0.487595 6,000 254 178 2624
2019-06-18 18:56:14 GMT 51.807800 -0.482941 6,150 264 181 2496
2019-06-18 18:56:10 GMT 51.808640 -0.477237 5,925 251 178 2624
2019-06-18 18:56:07 GMT 51.809799 -0.472870 5,800 241 175 2496
2019-06-18 18:56:04 GMT 51.810287 -0.471521 5,725 233 173 2304
2019-06-18 18:56:01 GMT 51.811756 -0.468140 5,650 236 174 2368
2019-06-18 18:55:58 GMT 51.815201 -0.462418 5,225 221 170 2368
2019-06-18 18:55:55 GMT 51.815201 -0.462418 5,275 216 170 2304
2019-06-18 18:55:52 GMT 51.817856 -0.459290 5,250 212 168 2304
2019-06-18 18:55:49 GMT 51.819157 -0.457916 4,975 207 168 2816
2019-06-18 18:55:46 GMT 51.823719 -0.454178 4,800 206 168 2944
2019-06-18 18:55:43 GMT 51.823719 -0.454178 4,825 206 168 3200
2019-06-18 18:55:40 GMT 51.825302 -0.453038 4,575 205 170 3200
2019-06-18 18:55:37 GMT 51.827862 -0.451050 4,500 206 172 3072
2019-06-18 18:55:34 GMT 51.829586 -0.449753 4,350 205 174 3008
2019-06-18 18:55:31 GMT 51.832489 -0.447619 4,100 205 173 2944
2019-06-18 18:55:28 GMT 51.834137 -0.446431 4,125 205 174 3008
2019-06-18 18:55:25 GMT 51.836792 -0.444501 3,925 205 175 3200
2019-06-18 18:55:22 GMT 51.839455 -0.442505 3,650 205 178 3520
2019-06-18 18:55:19 GMT 51.842293 -0.440369 3,575 206 178 3584
2019-06-18 18:55:16 GMT 51.843365 -0.439606 3,350 207 183 3712
2019-06-18 18:55:13 GMT 51.848068 -0.435715 3,050 208 186 3584
2019-06-18 18:55:09 GMT 51.848068 -0.435715 3,025 210 188 3328
2019-06-18 18:55:06 GMT 51.850349 -0.433655 2,875 211 190 3136
2019-06-18 18:55:03 GMT 51.852722 -0.431288 2,800 212 190 2880
2019-06-18 18:55:00 GMT 51.854782 -0.429061 2,575 216 192 2368
2019-06-18 18:54:57 GMT 51.858307 -0.424681 2,425 221 191 1728
2019-06-18 18:54:54 GMT 51.859772 -0.422602 2,375 224 188 1920
2019-06-18 18:54:51 GMT 51.860641 -0.421266 2,325 225 188 2048
2019-06-18 18:54:48 GMT 51.864872 -0.413513 2,100 232 185 2496
2019-06-18 18:54:44 GMT 51.864872 -0.413513 2,025 236 182 2624
2019-06-18 18:54:41 GMT 51.866501 -0.409470 1,875 239 179 2816
2019-06-18 18:54:37 GMT 51.867992 -0.405045 1,650 249 175 3328
2019-06-18 18:54:34 GMT 51.869247 -0.399665 1,475 252 175 3328
2019-06-18 18:54:31 GMT 51.869705 -0.397141 1,350 255 172 3264
2019-06-18 18:54:28 GMT 51.870071 -0.395211 1,200 255 168 3008
2019-06-18 18:54:24 GMT 51.871033 -0.389495 1,000 255 168 3264
2019-06-18 18:54:14 GMT 51.873161 -0.376968 0 253 160
2019-06-18 18:54:03 GMT 51.874928 -0.366840 0 253 110
2019-06-18 18:53:57 GMT 51.875656 -0.362623 0 255 74
2019-06-18 18:53:52 GMT 51.876011 -0.360565 0 255 44
2019-06-18 18:53:46 GMT 51.876217 -0.359394 0 253 13
2019-06-18 18:53:42 GMT 51.876240 -0.359320 0 253 1
2019-06-18 18:53:35 GMT 51.876244 -0.359249 0 250 3
2019-06-18 18:53:32 GMT 51.876240 -0.359153 0 236 3
2019-06-18 18:53:25 GMT 51.876251 -0.358986 0 196 5
2019-06-18 18:53:22 GMT 51.876312 -0.358906 0 171 5
2019-06-18 18:53:15 GMT 51.876545 -0.359020 0 160 9
2019-06-18 18:53:12 GMT 51.876709 -0.359116 0 160 10
2019-06-18 18:53:04 GMT 51.877029 -0.359283 0 163 11
2019-06-18 18:53:00 GMT 51.877190 -0.359357 0 163 9
2019-06-18 18:52:46 GMT 51.877453 -0.359516 0 151 0
2019-06-18 18:52:41 GMT 51.877453 -0.359505 0 151 0
2019-06-18 18:52:26 GMT 51.877441 -0.359505 0 151 0
2019-06-18 18:52:01 GMT 51.877441 -0.359516 0 151 0
2019-06-18 18:51:56 GMT 51.877441 -0.359505 0 151 0
2019-06-18 18:51:46 GMT 51.877441 -0.359516 0 151 0
2019-06-18 18:51:37 GMT 51.877441 -0.359505 0 151 0
2019-06-18 18:51:12 GMT 51.877453 -0.359516 0 151 0
2019-06-18 18:50:57 GMT 51.877453 -0.359505 0 151 0
2019-06-18 18:50:37 GMT 51.877441 -0.359516 0 151 0
2019-06-18 18:50:10 GMT 51.877441 -0.359505 0 151 0
2019-06-18 18:49:59 GMT 51.877430 -0.359516 0 151 0
2019-06-18 18:49:49 GMT 51.877583 -0.359612 0 137 7
2019-06-18 18:49:39 GMT 51.877804 -0.360088 0 106 12
2019-06-18 18:49:27 GMT 51.877743 -0.361328 0 73 16
2019-06-18 18:49:15 GMT 51.877522 -0.362663 0 73 17
2019-06-18 18:49:05 GMT 51.877300 -0.363960 0 73 17
2019-06-18 18:48:56 GMT 51.877098 -0.365110 0 73 19
2019-06-18 18:48:45 GMT 51.876835 -0.366631 0 73 23
2019-06-18 18:48:36 GMT 51.876549 -0.368265 0 75 21
2019-06-18 18:48:28 GMT 51.876389 -0.369193 0 75 19
2019-06-18 18:48:25 GMT 51.876320 -0.369619 0 73 18
2019-06-18 18:48:15 GMT 51.876080 -0.370993 0 73 16
2019-06-18 18:48:04 GMT 51.875919 -0.371921 0 75 15
2019-06-18 18:47:57 GMT 51.875805 -0.372681 0 87 15
2019-06-18 18:47:46 GMT 51.875862 -0.373962 0 75 14
2019-06-18 18:47:43 GMT 51.875835 -0.374126 0 70 13
2019-06-18 18:47:34 GMT 51.875473 -0.374667 0 22 15
2019-06-18 18:47:31 GMT 51.875263 -0.374813 0 30 16
2019-06-18 18:47:24 GMT 51.874847 -0.375423 0 45 17
2019-06-18 18:47:11 GMT 51.874271 -0.376375 0 45 11
2019-06-18 18:47:04 GMT 51.874054 -0.376727 0 45 10
2019-06-18 18:47:01 GMT 51.873928 -0.376892 0 30 11
2019-06-18 18:46:42 GMT 51.873081 -0.377507 0 73 15
2019-06-18 18:46:39 GMT 51.873020 -0.377808 0 73 17
2019-06-18 18:46:28 GMT 51.872765 -0.379295 0 75 17
2019-06-18 18:46:17 GMT 51.872601 -0.380383 0 84 12
2019-06-18 18:46:06 GMT 51.872967 -0.381107 0 182 14
2019-06-18 18:45:54 GMT 51.873520 -0.380764 0 205 8
2019-06-18 18:45:32 GMT 51.873634 -0.380669 0 205 0
2019-06-18 18:45:23 GMT 51.873631 -0.380661 0 205 0
2019-06-18 18:45:07 GMT 51.873634 -0.380669 0 205 0
2019-06-18 18:44:57 GMT 51.873642 -0.380680 0 205 0
2019-06-18 18:44:47 GMT 51.873642 -0.380661 0 205 0
2019-06-18 18:44:21 GMT 51.873634 -0.380669 0 205 0
2019-06-18 18:44:12 GMT 51.873642 -0.380680 0 205 0
2019-06-18 18:44:09 GMT 51.873634 -0.380669 0 205 0
2019-06-18 18:43:58 GMT 51.873798 -0.380573 0 210 7
2019-06-18 18:43:48 GMT 51.874126 -0.380192 0 225 10
2019-06-18 18:43:37 GMT 51.874287 -0.379677 0 253 6
2019-06-18 18:42:56 GMT 51.874348 -0.379391 0 253 0
2019-06-18 18:42:46 GMT 51.874340 -0.379381 0 253 0
2019-06-18 18:42:41 GMT 51.874348 -0.379391 0 253 0
2019-06-18 18:42:33 GMT 51.874340 -0.379381 0 253 0
2019-06-18 18:42:22 GMT 51.874348 -0.379391 0 253 0
2019-06-18 18:42:11 GMT 51.874352 -0.379362 0 253 1
2019-06-18 18:41:56 GMT 51.874489 -0.378564 0 253 13
2019-06-18 18:41:52 GMT 51.874557 -0.378156 0 255 16
2019-06-18 18:41:49 GMT 51.874638 -0.377692 0 255 19
2019-06-18 18:41:42 GMT 51.874786 -0.376835 0 255 18
2019-06-18 18:41:38 GMT 51.874855 -0.376449 0 255 17
2019-06-18 18:41:30 GMT 51.874985 -0.375671 0 255 11
2019-06-18 18:41:27 GMT 51.875038 -0.375391 0 253 8
2019-06-18 18:41:20 GMT 51.875107 -0.375075 0 241 8
2019-06-18 18:41:17 GMT 51.875187 -0.374908 0 225 8
2019-06-18 18:41:10 GMT 51.875370 -0.374699 0 202 8
2019-06-18 18:41:05 GMT 51.875507 -0.374612 0 202 8
2019-06-18 18:40:54 GMT 51.875816 -0.374166 0 253 8
2019-06-18 18:40:48 GMT 51.875847 -0.373878 0 272 8
2019-06-18 18:40:37 GMT 51.875767 -0.373249 0 275 8
2019-06-18 18:40:20 GMT 51.875816 -0.372477 0 253 7
2019-06-18 18:40:13 GMT 51.875874 -0.372143 0 255 6
2019-06-18 18:40:06 GMT 51.875931 -0.371828 0 255 6
2019-06-18 18:39:53 GMT 51.875988 -0.371457 0 253 5
2019-06-18 18:39:41 GMT 51.876091 -0.370922 0 253 9
2019-06-18 18:39:30 GMT 51.876194 -0.370380 0 253 8
2019-06-18 18:39:22 GMT 51.876255 -0.370026 0 247 6
2019-06-18 18:39:19 GMT 51.876274 -0.369916 0 241 5
2019-06-18 18:39:12 GMT 51.876335 -0.369682 0 216 6
2019-06-18 18:39:08 GMT 51.876431 -0.369530 0 210 8
2019-06-18 18:38:58 GMT 51.876862 -0.369511 0 163 12
2019-06-18 18:38:47 GMT 51.877396 -0.369816 0 160 18

Making use of Plane Finder data

You are free to use the raw flight data, aircraft information and images provided in this report for your own purposes provided the data is correctly attributed to Plane Finder. We ask that you please credit Plane Finder and link to planefinder.net in close proximity to the content.

Optionally one of the following logos (no smaller then 150x24px) can be used and must link to planefinder.net

Embedding the Plane Finder map

You are welcome to embed the Plane Finder playback map on your website to offer visitors a more interactive experience. We suggest using the following HTML code:

<iframe src="//planefinder.net/data/report/U219-G-EZOI-7700-squawk-2019-06-18/map" width="800" height="600" seamless="seamless"></iframe>

Where our data comes from

Plane Finder has a global network of data feeds and antenna radars that receive data broadcast directly from aircraft. The primary technologies used are ADS-B and MLAT. We also show feeds from the FAA and a FLARM glider feed.

Click here to find out more about the Plane Finder network.

How we collect our data